createdAt,value
2018-10-04T00:00:13.173Z,14.29
2018-10-04T00:01:13.641Z,14.30
2018-10-04T00:02:14.116Z,14.33
2018-10-04T00:03:14.589Z,14.35
2018-10-04T00:04:15.061Z,14.35
2018-10-04T00:05:15.531Z,14.38
2018-10-04T00:06:16.003Z,14.38
2018-10-04T00:07:16.476Z,14.41
2018-10-04T00:08:16.948Z,14.42
2018-10-04T00:09:17.421Z,14.44
2018-10-04T00:10:17.893Z,14.46
2018-10-04T00:11:18.368Z,14.46
2018-10-04T00:12:18.840Z,14.44
2018-10-04T00:13:19.311Z,14.46
2018-10-04T00:14:19.785Z,14.48
2018-10-04T00:15:20.257Z,14.48
2018-10-04T00:16:20.730Z,14.48
2018-10-04T00:17:21.202Z,14.50
2018-10-04T00:18:21.675Z,14.53
2018-10-04T00:19:22.149Z,14.55
2018-10-04T00:20:22.622Z,14.52
2018-10-04T00:21:23.096Z,14.48
2018-10-04T00:22:23.566Z,14.39
2018-10-04T00:23:24.039Z,14.31
2018-10-04T00:24:24.512Z,14.19
2018-10-04T00:25:24.983Z,14.07
2018-10-04T00:26:25.659Z,13.94
2018-10-04T00:27:25.930Z,13.80
2018-10-04T00:28:26.401Z,13.67
2018-10-04T00:29:26.874Z,13.52
2018-10-04T00:30:27.352Z,13.37
2018-10-04T00:31:27.819Z,13.21
2018-10-04T00:32:28.291Z,13.06
2018-10-04T00:33:28.762Z,12.90
2018-10-04T00:34:29.231Z,12.73
2018-10-04T00:35:29.704Z,12.56
2018-10-04T00:36:30.175Z,12.40
2018-10-04T00:37:30.646Z,12.23
2018-10-04T00:38:31.117Z,12.08
2018-10-04T00:39:31.589Z,11.95
2018-10-04T00:40:32.056Z,11.85
2018-10-04T00:41:32.527Z,11.77
2018-10-04T00:42:32.999Z,11.71
2018-10-04T00:43:33.467Z,11.65
2018-10-04T00:44:33.935Z,11.63
2018-10-04T00:45:34.404Z,11.61
2018-10-04T00:46:34.875Z,11.63
2018-10-04T00:47:35.346Z,11.63
2018-10-04T00:48:35.813Z,11.65
2018-10-04T00:49:36.283Z,11.70
2018-10-04T00:50:36.751Z,11.74
2018-10-04T00:51:37.223Z,11.78
2018-10-04T00:52:37.708Z,11.83
2018-10-04T00:53:38.157Z,11.88
2018-10-04T00:54:38.628Z,11.93
2018-10-04T00:55:39.098Z,12.00
2018-10-04T00:56:39.564Z,12.09
2018-10-04T00:57:40.044Z,12.14
2018-10-04T00:58:40.570Z,12.21
2018-10-04T00:59:40.974Z,12.29
2018-10-04T01:00:41.438Z,12.34
2018-10-04T01:01:41.908Z,12.42
2018-10-04T01:02:42.378Z,12.48
2018-10-04T01:03:42.846Z,12.53
2018-10-04T01:04:43.315Z,12.59
2018-10-04T01:05:43.786Z,12.63
2018-10-04T01:06:44.253Z,12.71
2018-10-04T01:07:44.724Z,12.76
2018-10-04T01:08:45.193Z,12.79
2018-10-04T01:09:45.662Z,12.86
2018-10-04T01:10:46.140Z,12.90
2018-10-04T01:11:46.604Z,12.98
2018-10-04T01:12:47.073Z,13.05
2018-10-04T01:13:47.540Z,13.09
2018-10-04T01:14:48.025Z,13.11
2018-10-04T01:15:48.480Z,13.18
2018-10-04T01:16:49.154Z,13.22
2018-10-04T01:17:49.420Z,13.26
2018-10-04T01:18:49.892Z,13.27
2018-10-04T01:19:50.361Z,13.29
2018-10-04T01:20:50.832Z,13.33
2018-10-04T01:21:51.301Z,13.37
2018-10-04T01:22:51.772Z,13.41
2018-10-04T01:23:52.244Z,13.46
2018-10-04T01:24:52.717Z,13.51
2018-10-04T01:25:53.185Z,13.57
2018-10-04T01:26:53.656Z,13.59
2018-10-04T01:27:54.128Z,13.65
2018-10-04T01:28:54.598Z,13.71
2018-10-04T01:29:55.070Z,13.76
2018-10-04T01:30:55.540Z,13.78
2018-10-04T01:31:56.012Z,13.80
2018-10-04T01:32:56.482Z,13.85
2018-10-04T01:33:56.953Z,13.88
2018-10-04T01:34:57.426Z,13.89
2018-10-04T01:35:57.898Z,13.92
2018-10-04T01:36:58.367Z,13.94
2018-10-04T01:37:58.841Z,13.96
2018-10-04T01:38:59.311Z,13.98
2018-10-04T01:39:59.783Z,14.01
2018-10-04T01:41:00.260Z,14.03
2018-10-04T01:42:00.728Z,14.03
2018-10-04T01:43:01.199Z,14.05
2018-10-04T01:44:01.671Z,14.05
2018-10-04T01:45:02.145Z,14.08
2018-10-04T01:46:02.614Z,14.11
2018-10-04T01:47:03.087Z,14.15
2018-10-04T01:48:03.560Z,14.14
2018-10-04T01:49:04.034Z,14.22
2018-10-04T01:50:04.503Z,14.24
2018-10-04T01:51:04.974Z,14.29
2018-10-04T01:52:05.450Z,14.30
2018-10-04T01:53:05.920Z,14.34
2018-10-04T01:54:06.392Z,14.34
2018-10-04T01:55:06.866Z,14.37
2018-10-04T01:56:07.337Z,14.36
2018-10-04T01:57:07.810Z,14.36
2018-10-04T01:58:08.285Z,14.36
2018-10-04T01:59:08.753Z,14.38
2018-10-04T02:00:09.228Z,14.39
2018-10-04T02:01:09.700Z,14.41
2018-10-04T02:02:10.172Z,14.39
2018-10-04T02:03:10.646Z,14.41
2018-10-04T02:04:11.119Z,14.40
2018-10-04T02:05:11.591Z,14.37
2018-10-04T02:06:12.064Z,14.29
2018-10-04T02:07:12.538Z,14.18
2018-10-04T02:08:13.010Z,14.06
2018-10-04T02:09:13.484Z,13.92
2018-10-04T02:10:13.956Z,13.77
2018-10-04T02:11:14.428Z,13.61
2018-10-04T02:12:14.904Z,13.44
2018-10-04T02:13:15.372Z,13.26
2018-10-04T02:14:15.845Z,13.07
2018-10-04T02:15:16.317Z,12.89
2018-10-04T02:16:16.791Z,12.71
2018-10-04T02:17:17.261Z,12.54
2018-10-04T02:18:17.733Z,12.38
2018-10-04T02:19:18.203Z,12.23
2018-10-04T02:20:18.675Z,12.09
2018-10-04T02:21:19.145Z,11.95
2018-10-04T02:22:19.618Z,11.81
2018-10-04T02:23:20.089Z,11.69
2018-10-04T02:24:20.561Z,11.56
2018-10-04T02:25:21.031Z,11.44
2018-10-04T02:26:21.498Z,11.35
2018-10-04T02:27:21.967Z,11.26
2018-10-04T02:28:22.439Z,11.17
2018-10-04T02:29:22.907Z,11.11
2018-10-04T02:30:23.376Z,11.09
2018-10-04T02:31:23.847Z,11.06
2018-10-04T02:32:24.315Z,11.06
2018-10-04T02:33:24.785Z,11.09
2018-10-04T02:34:25.252Z,11.10
2018-10-04T02:35:25.720Z,11.10
2018-10-04T02:36:26.190Z,11.12
2018-10-04T02:37:26.661Z,11.14
2018-10-04T02:38:27.128Z,11.19
2018-10-04T02:39:27.598Z,11.24
2018-10-04T02:40:28.075Z,11.30
2018-10-04T02:41:28.533Z,11.35
2018-10-04T02:42:29.056Z,11.40
2018-10-04T02:43:29.472Z,11.47
2018-10-04T02:44:29.946Z,11.54
2018-10-04T02:45:30.410Z,11.63
2018-10-04T02:46:30.879Z,11.70
2018-10-04T02:47:31.346Z,11.77
2018-10-04T02:48:31.817Z,11.85
2018-10-04T02:49:32.285Z,11.91
2018-10-04T02:50:32.755Z,11.99
2018-10-04T02:51:33.224Z,12.05
2018-10-04T02:52:33.693Z,12.10
2018-10-04T02:53:34.183Z,12.15
2018-10-04T02:54:34.635Z,12.20
2018-10-04T02:55:35.102Z,12.24
2018-10-04T02:56:35.574Z,12.27
2018-10-04T02:57:36.042Z,12.32
2018-10-04T02:58:36.510Z,12.35
2018-10-04T02:59:37.079Z,12.39
2018-10-04T03:00:37.451Z,12.44
2018-10-04T03:01:37.922Z,12.49
2018-10-04T03:02:38.390Z,12.51
2018-10-04T03:03:38.861Z,12.55
2018-10-04T03:04:39.330Z,12.59
2018-10-04T03:05:39.832Z,12.63
2018-10-04T03:06:40.292Z,12.68
2018-10-04T03:07:40.741Z,12.72
2018-10-04T03:08:41.211Z,12.75
2018-10-04T03:09:41.682Z,12.79
2018-10-04T03:10:42.153Z,12.83
2018-10-04T03:11:42.621Z,12.85
2018-10-04T03:12:43.094Z,12.88
2018-10-04T03:13:43.567Z,12.93
2018-10-04T03:14:44.035Z,12.94
2018-10-04T03:15:44.507Z,12.97
2018-10-04T03:16:44.978Z,12.99
2018-10-04T03:17:45.445Z,13.01
2018-10-04T03:18:45.920Z,13.03
2018-10-04T03:19:46.391Z,13.07
2018-10-04T03:20:46.868Z,13.07
2018-10-04T03:21:47.331Z,13.09
2018-10-04T03:22:47.802Z,13.10
2018-10-04T03:23:48.274Z,13.10
2018-10-04T03:24:48.746Z,13.13
2018-10-04T03:25:49.216Z,13.14
2018-10-04T03:26:49.687Z,13.15
2018-10-04T03:27:50.159Z,13.18
2018-10-04T03:28:50.635Z,13.18
2018-10-04T03:29:51.142Z,13.19
2018-10-04T03:30:51.581Z,13.22
2018-10-04T03:31:52.047Z,13.24
2018-10-04T03:32:52.520Z,13.25
2018-10-04T03:33:52.989Z,13.27
2018-10-04T03:34:53.462Z,13.30
2018-10-04T03:35:53.932Z,13.33
2018-10-04T03:36:54.405Z,13.35
2018-10-04T03:37:54.875Z,13.37
2018-10-04T03:38:55.347Z,13.42
2018-10-04T03:39:55.820Z,13.43
2018-10-04T03:40:56.292Z,13.46
2018-10-04T03:41:56.762Z,13.46
2018-10-04T03:42:57.234Z,13.47
2018-10-04T03:43:57.707Z,13.49
2018-10-04T03:44:58.180Z,13.50
2018-10-04T03:45:58.650Z,13.52
2018-10-04T03:46:59.125Z,13.52
2018-10-04T03:47:59.594Z,13.52
2018-10-04T03:49:00.069Z,13.50
2018-10-04T03:50:00.539Z,13.50
2018-10-04T03:51:01.011Z,13.50
2018-10-04T03:52:01.489Z,13.50
2018-10-04T03:53:01.956Z,13.49
2018-10-04T03:54:02.433Z,13.49
2018-10-04T03:55:02.901Z,13.51
2018-10-04T03:56:03.376Z,13.53
2018-10-04T03:57:03.845Z,13.52
2018-10-04T03:58:04.317Z,13.52
2018-10-04T03:59:04.788Z,13.53
2018-10-04T04:00:05.262Z,13.54
2018-10-04T04:01:05.735Z,13.54
2018-10-04T04:02:06.207Z,13.57
2018-10-04T04:03:06.681Z,13.59
2018-10-04T04:04:07.296Z,13.62
2018-10-04T04:05:07.623Z,13.60
2018-10-04T04:06:08.095Z,13.61
2018-10-04T04:07:08.568Z,13.64
2018-10-04T04:08:09.041Z,13.64
2018-10-04T04:09:09.514Z,13.66
2018-10-04T04:10:09.984Z,13.64
2018-10-04T04:11:10.459Z,13.66
2018-10-04T04:12:10.933Z,13.67
2018-10-04T04:13:11.405Z,13.67
2018-10-04T04:14:11.876Z,13.68
2018-10-04T04:15:12.347Z,13.69
2018-10-04T04:16:12.823Z,13.71
2018-10-04T04:17:13.294Z,13.73
2018-10-04T04:18:13.765Z,13.74
2018-10-04T04:20:14.714Z,13.76
2018-10-04T04:21:15.187Z,13.79
2018-10-04T04:22:15.745Z,13.82
2018-10-04T04:23:16.129Z,13.82
2018-10-04T04:24:16.603Z,13.83
2018-10-04T04:25:17.149Z,13.84
2018-10-04T04:26:17.548Z,13.84
2018-10-04T04:27:18.020Z,13.85
2018-10-04T04:28:18.492Z,13.85
2018-10-04T04:29:18.972Z,13.84
2018-10-04T04:30:19.440Z,13.85
2018-10-04T04:31:19.911Z,13.83
2018-10-04T04:32:20.384Z,13.79
2018-10-04T04:33:20.857Z,13.80
2018-10-04T04:34:21.331Z,13.80
2018-10-04T04:35:21.803Z,13.76
2018-10-04T04:36:22.303Z,13.77
2018-10-04T04:37:22.965Z,13.71
2018-10-04T04:38:23.220Z,13.62
2018-10-04T04:39:23.698Z,13.51
2018-10-04T04:40:24.167Z,13.39
2018-10-04T04:41:24.642Z,13.26
2018-10-04T04:42:25.115Z,13.11
2018-10-04T04:43:25.584Z,12.94
2018-10-04T04:44:26.056Z,12.77
2018-10-04T04:45:26.528Z,12.60
2018-10-04T04:46:27.058Z,12.43
2018-10-04T04:47:27.474Z,12.24
2018-10-04T04:48:27.945Z,12.06
2018-10-04T04:49:28.417Z,11.86
2018-10-04T04:50:28.890Z,11.68
2018-10-04T04:51:29.360Z,11.49
2018-10-04T04:52:29.833Z,11.29
2018-10-04T04:53:30.302Z,11.11
2018-10-04T04:54:30.773Z,10.93
2018-10-04T04:55:31.242Z,10.79
2018-10-04T04:56:31.712Z,10.67
2018-10-04T04:57:32.182Z,10.57
2018-10-04T04:58:32.653Z,10.49
2018-10-04T04:59:33.124Z,10.43
2018-10-04T05:00:33.591Z,10.37
2018-10-04T05:01:34.061Z,10.35
2018-10-04T05:02:34.529Z,10.31
2018-10-04T05:03:35.000Z,10.31
2018-10-04T05:04:35.468Z,10.32
2018-10-04T05:05:35.939Z,10.34
2018-10-04T05:06:36.443Z,10.37
2018-10-04T05:07:36.873Z,10.40
2018-10-04T05:08:37.342Z,10.43
2018-10-04T05:09:37.812Z,10.44
2018-10-04T05:10:38.277Z,10.47
2018-10-04T05:11:38.749Z,10.54
2018-10-04T05:12:39.214Z,10.57
2018-10-04T05:13:39.683Z,10.63
2018-10-04T05:14:40.160Z,10.68
2018-10-04T05:15:40.628Z,10.72
2018-10-04T05:16:41.088Z,10.76
2018-10-04T05:17:41.564Z,10.79
2018-10-04T05:18:42.026Z,10.86
2018-10-04T05:19:42.494Z,10.91
2018-10-04T05:20:42.962Z,10.94
2018-10-04T05:21:43.434Z,11.00
2018-10-04T05:22:43.899Z,11.05
2018-10-04T05:23:44.369Z,11.10
2018-10-04T05:24:44.838Z,11.17
2018-10-04T05:25:45.307Z,11.22
2018-10-04T05:26:45.775Z,11.28
2018-10-04T05:27:46.314Z,11.32
2018-10-04T05:28:46.713Z,11.37
2018-10-04T05:29:47.183Z,11.45
2018-10-04T05:30:47.651Z,11.51
2018-10-04T05:31:48.121Z,11.56
2018-10-04T05:32:48.589Z,11.64
2018-10-04T05:33:49.062Z,11.68
2018-10-04T05:34:49.527Z,11.74
2018-10-04T05:35:49.997Z,11.80
2018-10-04T05:36:50.523Z,11.85
2018-10-04T05:37:50.939Z,11.91
2018-10-04T05:38:51.407Z,11.97
2018-10-04T05:39:51.875Z,12.02
2018-10-04T05:40:52.347Z,12.06
2018-10-04T05:41:52.817Z,12.08
2018-10-04T05:42:53.286Z,12.13
2018-10-04T05:43:53.754Z,12.20
2018-10-04T05:44:54.237Z,12.23
2018-10-04T05:45:54.695Z,12.28
2018-10-04T05:46:55.167Z,12.36
2018-10-04T05:47:55.635Z,12.40
2018-10-04T05:48:56.106Z,12.47
2018-10-04T05:49:56.575Z,12.53
2018-10-04T05:50:57.046Z,12.59
2018-10-04T05:51:57.518Z,12.65
2018-10-04T05:52:57.992Z,12.70
2018-10-04T05:53:58.458Z,12.78
2018-10-04T05:54:58.926Z,12.82
2018-10-04T05:55:59.401Z,12.89
2018-10-04T05:56:59.869Z,12.93
2018-10-04T05:58:00.341Z,12.99
2018-10-04T05:59:00.830Z,13.02
2018-10-04T06:00:01.290Z,13.11
2018-10-04T06:01:01.755Z,13.14
2018-10-04T06:02:02.222Z,13.22
2018-10-04T06:03:02.700Z,13.25
2018-10-04T06:04:03.166Z,13.28
2018-10-04T06:05:03.723Z,13.35
2018-10-04T06:06:04.109Z,13.38
2018-10-04T06:07:04.580Z,13.44
2018-10-04T06:08:05.050Z,13.45
2018-10-04T06:09:05.525Z,13.51
2018-10-04T06:10:05.995Z,13.58
2018-10-04T06:11:06.468Z,13.62
2018-10-04T06:12:06.941Z,13.67
2018-10-04T06:13:07.410Z,13.73
2018-10-04T06:14:07.882Z,13.78
2018-10-04T06:15:08.420Z,13.84
2018-10-04T06:16:08.825Z,13.86
2018-10-04T06:17:09.295Z,13.89
2018-10-04T06:18:09.768Z,13.95
2018-10-04T06:19:10.240Z,13.99
2018-10-04T06:20:10.713Z,14.04
2018-10-04T06:21:11.185Z,14.07
2018-10-04T06:22:11.659Z,14.12
2018-10-04T06:23:12.129Z,14.16
2018-10-04T06:24:12.600Z,14.20
2018-10-04T06:25:13.073Z,14.23
2018-10-04T06:26:13.546Z,14.29
2018-10-04T06:27:14.021Z,14.34
2018-10-04T06:28:14.489Z,14.38
2018-10-04T06:29:14.962Z,14.43
2018-10-04T06:30:15.436Z,14.48
2018-10-04T06:31:15.909Z,14.49
2018-10-04T06:32:16.379Z,14.55
2018-10-04T06:33:16.853Z,14.57
2018-10-04T06:34:17.325Z,14.60
2018-10-04T06:35:17.819Z,14.64
2018-10-04T06:36:18.473Z,14.67
2018-10-04T06:37:18.743Z,14.70
2018-10-04T06:38:19.217Z,14.73
2018-10-04T06:39:19.689Z,14.76
2018-10-04T06:40:20.163Z,14.82
2018-10-04T06:41:20.634Z,14.85
2018-10-04T06:42:21.110Z,14.88
2018-10-04T06:43:21.581Z,14.94
2018-10-04T06:44:22.053Z,14.98
2018-10-04T06:45:22.529Z,15.03
2018-10-04T06:46:23.002Z,15.02
2018-10-04T06:47:23.474Z,14.98
2018-10-04T06:48:23.948Z,14.95
2018-10-04T06:49:24.424Z,14.89
2018-10-04T06:50:24.894Z,14.80
2018-10-04T06:51:25.368Z,14.70
2018-10-04T06:52:25.840Z,14.60
2018-10-04T06:53:26.313Z,14.48
2018-10-04T06:54:26.787Z,14.36
2018-10-04T06:55:27.259Z,14.25
2018-10-04T06:56:27.732Z,14.13
2018-10-04T06:57:28.209Z,14.00
2018-10-04T06:58:28.679Z,13.87
2018-10-04T06:59:29.148Z,13.74
2018-10-04T07:00:29.621Z,13.60
2018-10-04T07:01:30.094Z,13.46
2018-10-04T07:02:30.568Z,13.33
2018-10-04T07:03:31.065Z,13.20
2018-10-04T07:04:31.508Z,13.06
2018-10-04T07:05:31.979Z,12.94
2018-10-04T07:06:32.452Z,12.81
2018-10-04T07:07:32.921Z,12.71
2018-10-04T07:08:33.594Z,12.62
2018-10-04T07:09:33.863Z,12.56
2018-10-04T07:10:34.331Z,12.52
2018-10-04T07:11:34.807Z,12.50
2018-10-04T07:12:35.273Z,12.51
2018-10-04T07:13:35.743Z,12.54
2018-10-04T07:14:36.214Z,12.58
2018-10-04T07:15:36.683Z,12.63
2018-10-04T07:16:37.204Z,12.67
2018-10-04T07:17:37.623Z,12.73
2018-10-04T07:18:38.093Z,12.81
2018-10-04T07:19:38.567Z,12.89
2018-10-04T07:20:39.126Z,12.98
2018-10-04T07:21:39.501Z,13.08
2018-10-04T07:22:39.971Z,13.17
2018-10-04T07:23:40.440Z,13.27
2018-10-04T07:24:40.910Z,13.38
2018-10-04T07:25:41.382Z,13.49
2018-10-04T07:26:41.853Z,13.60
2018-10-04T07:27:42.321Z,13.72
2018-10-04T07:28:42.790Z,13.80
2018-10-04T07:29:43.259Z,13.92
2018-10-04T07:30:43.733Z,14.05
2018-10-04T07:31:44.243Z,14.16
2018-10-04T07:32:44.674Z,14.25
2018-10-04T07:33:45.139Z,14.35
2018-10-04T07:34:45.619Z,14.47
2018-10-04T07:35:46.082Z,14.55
2018-10-04T07:36:46.555Z,14.63
2018-10-04T07:37:47.024Z,14.72
2018-10-04T07:38:47.496Z,14.80
2018-10-04T07:39:47.970Z,14.88
2018-10-04T07:40:48.439Z,14.94
2018-10-04T07:41:48.922Z,15.03
2018-10-04T07:42:49.382Z,15.11
2018-10-04T07:43:49.858Z,15.18
2018-10-04T07:44:50.325Z,15.27
2018-10-04T07:45:50.796Z,15.35
2018-10-04T07:46:51.271Z,15.44
2018-10-04T07:47:51.742Z,15.53
2018-10-04T07:48:52.216Z,15.61
2018-10-04T07:49:52.688Z,15.71
2018-10-04T07:50:53.161Z,15.80
2018-10-04T07:51:53.633Z,15.87
2018-10-04T07:52:54.111Z,15.95
2018-10-04T07:53:54.579Z,16.03
2018-10-04T07:54:55.053Z,16.11
2018-10-04T07:55:55.525Z,16.18
2018-10-04T07:56:55.999Z,16.27
2018-10-04T07:57:56.473Z,16.34
2018-10-04T07:58:56.945Z,16.38
2018-10-04T07:59:57.460Z,16.39
2018-10-04T08:00:57.895Z,16.37
2018-10-04T08:01:58.371Z,16.33
2018-10-04T08:02:58.843Z,16.27
2018-10-04T08:03:59.316Z,16.19
2018-10-04T08:04:59.791Z,16.13
2018-10-04T08:06:00.275Z,16.04
2018-10-04T08:07:00.739Z,15.96
2018-10-04T08:08:01.211Z,15.89
2018-10-04T08:09:01.688Z,15.80
2018-10-04T08:10:02.160Z,15.70
2018-10-04T08:11:02.633Z,15.61
2018-10-04T08:12:03.109Z,15.50
2018-10-04T08:13:03.577Z,15.39
2018-10-04T08:14:04.053Z,15.28
2018-10-04T08:15:04.528Z,15.18
2018-10-04T08:16:04.999Z,15.09
2018-10-04T08:17:05.473Z,14.99
2018-10-04T08:18:05.945Z,14.90
2018-10-04T08:19:06.416Z,14.81
2018-10-04T08:20:06.891Z,14.72
2018-10-04T08:21:07.404Z,14.63
2018-10-04T08:22:08.036Z,14.56
2018-10-04T08:23:08.303Z,14.48
2018-10-04T08:24:08.774Z,14.41
2018-10-04T08:25:09.248Z,14.34
2018-10-04T08:26:09.719Z,14.27
2018-10-04T08:27:10.190Z,14.23
2018-10-04T08:28:10.663Z,14.19
2018-10-04T08:29:11.130Z,14.18
2018-10-04T08:30:11.602Z,14.19
2018-10-04T08:31:12.071Z,14.22
2018-10-04T08:32:12.542Z,14.27
2018-10-04T08:33:13.012Z,14.34
2018-10-04T08:34:13.482Z,14.42
2018-10-04T08:35:14.023Z,14.51
2018-10-04T08:36:14.424Z,14.60
2018-10-04T08:37:14.897Z,14.71
2018-10-04T08:38:15.366Z,14.82
2018-10-04T08:39:15.835Z,14.94
2018-10-04T08:40:16.305Z,15.07
2018-10-04T08:41:16.778Z,15.21
2018-10-04T08:42:17.248Z,15.35
2018-10-04T08:43:17.718Z,15.50
2018-10-04T08:44:18.188Z,15.66
2018-10-04T08:45:18.657Z,15.81
2018-10-04T08:46:19.136Z,15.94
2018-10-04T08:47:19.601Z,16.07
2018-10-04T08:48:20.170Z,16.22
2018-10-04T08:49:20.545Z,16.37
2018-10-04T08:50:21.016Z,16.51
2018-10-04T08:51:21.487Z,16.65
2018-10-04T08:52:21.959Z,16.79
2018-10-04T08:53:22.432Z,16.93
2018-10-04T08:54:22.977Z,17.05
2018-10-04T08:55:23.379Z,17.19
2018-10-04T08:56:23.847Z,17.32
2018-10-04T08:57:24.325Z,17.43
2018-10-04T08:58:24.794Z,17.56
2018-10-04T08:59:25.318Z,17.67
2018-10-04T09:00:25.740Z,17.80
2018-10-04T09:01:26.215Z,17.90
2018-10-04T09:02:26.688Z,18.01
2018-10-04T09:03:27.165Z,18.12
2018-10-04T09:04:27.639Z,18.21
2018-10-04T09:05:28.108Z,18.29
2018-10-04T09:06:28.587Z,18.32
2018-10-04T09:07:29.074Z,18.32
2018-10-04T09:08:29.532Z,18.28
2018-10-04T09:09:30.008Z,18.24
2018-10-04T09:10:30.484Z,18.21
2018-10-04T09:11:30.963Z,18.18
2018-10-04T09:12:31.432Z,18.13
2018-10-04T09:13:31.906Z,18.08
2018-10-04T09:14:32.382Z,18.03
2018-10-04T09:15:32.856Z,17.96
2018-10-04T09:16:33.331Z,17.90
2018-10-04T09:17:33.806Z,17.84
2018-10-04T09:18:34.279Z,17.77
2018-10-04T09:19:34.753Z,17.70
2018-10-04T09:20:35.227Z,17.63
2018-10-04T09:21:35.699Z,17.56
2018-10-04T09:22:36.176Z,17.49
2018-10-04T09:23:36.649Z,17.42
2018-10-04T09:24:37.122Z,17.35
2018-10-04T09:25:37.597Z,17.29
2018-10-04T09:26:38.070Z,17.21
2018-10-04T09:27:38.544Z,17.14
2018-10-04T09:28:39.025Z,17.08
2018-10-04T09:29:39.488Z,17.01
2018-10-04T09:30:39.985Z,16.95
2018-10-04T09:31:40.445Z,16.89
2018-10-04T09:32:40.907Z,16.83
2018-10-04T09:33:41.379Z,16.77
2018-10-04T09:34:41.852Z,16.72
2018-10-04T09:35:42.327Z,16.67
2018-10-04T09:36:42.797Z,16.62
2018-10-04T09:37:43.318Z,16.57
2018-10-04T09:38:43.740Z,16.53
2018-10-04T09:39:44.212Z,16.47
2018-10-04T09:40:44.684Z,16.43
2018-10-04T09:41:45.154Z,16.39
2018-10-04T09:42:45.626Z,16.35
2018-10-04T09:43:46.098Z,16.32
2018-10-04T09:44:46.568Z,16.29
2018-10-04T09:45:47.039Z,16.27
2018-10-04T09:46:47.513Z,16.26
2018-10-04T09:47:47.987Z,16.27
2018-10-04T09:48:48.453Z,16.29
2018-10-04T09:49:48.924Z,16.32
2018-10-04T09:50:49.395Z,16.37
2018-10-04T09:51:49.864Z,16.43
2018-10-04T09:52:50.336Z,16.53
2018-10-04T09:53:50.813Z,16.64
2018-10-04T09:54:51.279Z,16.74
2018-10-04T09:55:51.750Z,16.85
2018-10-04T09:56:52.220Z,16.99
2018-10-04T09:57:52.691Z,17.14
2018-10-04T09:58:53.163Z,17.30
2018-10-04T09:59:53.772Z,17.45
2018-10-04T10:00:54.104Z,17.60
2018-10-04T10:01:54.578Z,17.75
2018-10-04T10:02:55.053Z,17.92
2018-10-04T10:03:55.520Z,18.08
2018-10-04T10:04:55.992Z,18.24
2018-10-04T10:05:56.463Z,18.39
2018-10-04T10:06:56.940Z,18.54
2018-10-04T10:07:57.410Z,18.69
2018-10-04T10:08:57.881Z,18.84
2018-10-04T10:09:58.354Z,18.99
2018-10-04T10:10:58.829Z,19.15
2018-10-04T10:11:59.302Z,19.27
2018-10-04T10:12:59.774Z,19.39
2018-10-04T10:14:00.249Z,19.49
2018-10-04T10:15:00.725Z,19.60
2018-10-04T10:16:01.199Z,19.69
2018-10-04T10:17:01.673Z,19.77
2018-10-04T10:18:02.197Z,19.80
2018-10-04T10:19:02.622Z,19.78
2018-10-04T10:20:03.097Z,19.77
2018-10-04T10:21:03.595Z,19.76
2018-10-04T10:22:04.046Z,19.72
2018-10-04T10:23:04.522Z,19.69
2018-10-04T10:24:04.997Z,19.66
2018-10-04T10:25:05.473Z,19.62
2018-10-04T10:26:05.947Z,19.58
2018-10-04T10:27:06.429Z,19.52
2018-10-04T10:28:06.897Z,19.47
2018-10-04T10:29:07.371Z,19.42
2018-10-04T10:30:07.846Z,19.37
2018-10-04T10:31:08.322Z,19.31
2018-10-04T10:32:08.799Z,19.25
2018-10-04T10:33:09.272Z,19.19
2018-10-04T10:34:09.747Z,19.12
2018-10-04T10:35:10.221Z,19.06
2018-10-04T10:36:10.694Z,18.99
2018-10-04T10:37:11.169Z,18.93
2018-10-04T10:38:11.647Z,18.87
2018-10-04T10:39:12.122Z,18.81
2018-10-04T10:40:12.647Z,18.74
2018-10-04T10:41:13.071Z,18.69
2018-10-04T10:42:13.541Z,18.64
2018-10-04T10:43:14.015Z,18.59
2018-10-04T10:44:14.490Z,18.54
2018-10-04T10:45:14.961Z,18.49
2018-10-04T10:46:15.446Z,18.44
2018-10-04T10:47:15.909Z,18.40
2018-10-04T10:48:16.383Z,18.36
2018-10-04T10:49:16.857Z,18.32
2018-10-04T10:50:17.330Z,18.28
2018-10-04T10:51:17.804Z,18.25
2018-10-04T10:52:18.276Z,18.22
2018-10-04T10:53:18.836Z,18.19
2018-10-04T10:54:19.222Z,18.15
2018-10-04T10:55:19.694Z,18.13
2018-10-04T10:56:20.166Z,18.10
2018-10-04T10:57:20.638Z,18.08
2018-10-04T10:58:21.111Z,18.05
2018-10-04T10:59:21.583Z,18.03
2018-10-04T11:00:22.062Z,18.01
2018-10-04T11:01:22.529Z,17.99
2018-10-04T11:02:23.000Z,17.97
2018-10-04T11:03:23.472Z,17.96
2018-10-04T11:04:23.947Z,17.94
2018-10-04T11:05:24.419Z,17.92
2018-10-04T11:06:24.891Z,17.91
2018-10-04T11:07:25.360Z,17.89
2018-10-04T11:08:25.918Z,17.88
2018-10-04T11:09:26.303Z,17.87
2018-10-04T11:10:26.777Z,17.85
2018-10-04T11:11:27.275Z,17.84
2018-10-04T11:12:27.718Z,17.83
2018-10-04T11:13:28.189Z,17.82
2018-10-04T11:14:28.662Z,17.81
2018-10-04T11:15:29.133Z,17.80
2018-10-04T11:16:29.605Z,17.80
2018-10-04T11:17:30.075Z,17.78
2018-10-04T11:18:30.547Z,17.77
2018-10-04T11:19:31.019Z,17.77
2018-10-04T11:20:31.490Z,17.76
2018-10-04T11:21:31.960Z,17.75
2018-10-04T11:22:32.433Z,17.75
2018-10-04T11:23:32.902Z,17.74
2018-10-04T11:24:33.393Z,17.75
2018-10-04T11:25:33.850Z,17.75
2018-10-04T11:26:34.315Z,17.78
2018-10-04T11:27:34.786Z,17.81
2018-10-04T11:28:35.257Z,17.85
2018-10-04T11:29:35.727Z,17.91
2018-10-04T11:30:36.199Z,17.97
2018-10-04T11:31:36.670Z,18.06
2018-10-04T11:32:37.140Z,18.15
2018-10-04T11:33:37.613Z,18.25
2018-10-04T11:34:38.083Z,18.37
2018-10-04T11:35:38.552Z,18.50
2018-10-04T11:36:39.025Z,18.63
2018-10-04T11:37:39.498Z,18.76
2018-10-04T11:38:39.969Z,18.91
2018-10-04T11:39:40.445Z,19.06
2018-10-04T11:40:40.914Z,19.22
2018-10-04T11:41:41.382Z,19.38
2018-10-04T11:42:41.859Z,19.55
2018-10-04T11:43:42.333Z,19.70
2018-10-04T11:44:42.804Z,19.86
2018-10-04T11:45:43.274Z,20.01
2018-10-04T11:46:43.748Z,20.17
2018-10-04T11:47:44.221Z,20.30
2018-10-04T11:48:44.697Z,20.42
2018-10-04T11:49:45.173Z,20.54
2018-10-04T11:50:45.644Z,20.64
2018-10-04T11:51:46.120Z,20.72
2018-10-04T11:52:46.593Z,20.78
2018-10-04T11:53:47.067Z,20.80
2018-10-04T11:54:47.545Z,20.80
2018-10-04T11:55:48.018Z,20.81
2018-10-04T11:56:48.568Z,20.83
2018-10-04T11:57:48.971Z,20.83
2018-10-04T11:58:49.445Z,20.83
2018-10-04T11:59:49.920Z,20.81
2018-10-04T12:00:50.397Z,20.79
2018-10-04T12:01:50.875Z,20.76
2018-10-04T12:02:51.347Z,20.72
2018-10-04T12:03:51.821Z,20.69
2018-10-04T12:04:52.299Z,20.65
2018-10-04T12:05:52.771Z,20.60
2018-10-04T12:06:53.395Z,20.54
2018-10-04T12:07:53.722Z,20.48
2018-10-04T12:08:54.199Z,20.42
2018-10-04T12:09:54.678Z,20.36
2018-10-04T12:10:55.149Z,20.32
2018-10-04T12:11:55.624Z,20.25
2018-10-04T12:12:56.183Z,20.20
2018-10-04T12:13:56.575Z,20.14
2018-10-04T12:14:57.050Z,20.09
2018-10-04T12:15:57.525Z,20.04
2018-10-04T12:16:58.000Z,19.99
2018-10-04T12:17:58.472Z,19.95
2018-10-04T12:18:58.979Z,19.90
2018-10-04T12:19:59.433Z,19.85
2018-10-04T12:20:59.898Z,19.82
2018-10-04T12:22:00.373Z,19.77
2018-10-04T12:23:00.846Z,19.73
2018-10-04T12:24:01.325Z,19.71
2018-10-04T12:25:01.817Z,19.66
2018-10-04T12:26:02.271Z,19.62
2018-10-04T12:27:02.745Z,19.58
2018-10-04T12:28:03.223Z,19.54
2018-10-04T12:29:03.693Z,19.50
2018-10-04T12:30:04.170Z,19.47
2018-10-04T12:31:04.655Z,19.43
2018-10-04T12:32:05.116Z,19.41
2018-10-04T12:33:05.588Z,19.38
2018-10-04T12:34:06.060Z,19.35
2018-10-04T12:35:06.536Z,19.33
2018-10-04T12:36:07.227Z,19.29
2018-10-04T12:37:07.485Z,19.27
2018-10-04T12:38:07.954Z,19.23
2018-10-04T12:39:08.430Z,19.21
2018-10-04T12:40:08.906Z,19.19
2018-10-04T12:41:09.377Z,19.16
2018-10-04T12:42:09.850Z,19.13
2018-10-04T12:43:10.322Z,19.11
2018-10-04T12:44:10.861Z,19.08
2018-10-04T12:45:11.268Z,19.05
2018-10-04T12:46:11.743Z,19.03
2018-10-04T12:47:12.421Z,18.99
2018-10-04T12:48:12.690Z,18.96
2018-10-04T12:49:13.366Z,18.93
2018-10-04T12:50:13.635Z,18.90
2018-10-04T12:51:14.107Z,18.87
2018-10-04T12:52:14.582Z,18.84
2018-10-04T12:53:15.056Z,18.81
2018-10-04T12:54:15.533Z,18.78
2018-10-04T12:55:16.002Z,18.76
2018-10-04T12:56:16.474Z,18.73
2018-10-04T12:57:16.946Z,18.71
2018-10-04T12:58:17.417Z,18.69
2018-10-04T12:59:17.888Z,18.67